sensor_id;sensor_type;location;lat;lon;timestamp;pressure;altitude;pressure_sealevel;temperature;humidity
55934;BME280;41839;41.386;2.082;2022-10-31T00:01:39;100238.63;;;21.25;87.54
55934;BME280;41839;41.386;2.082;2022-10-31T00:04:04;100218.50;;;21.19;87.63
55934;BME280;41839;41.386;2.082;2022-10-31T00:06:30;100229.88;;;21.27;87.49
55934;BME280;41839;41.386;2.082;2022-10-31T00:08:58;100232.50;;;21.26;87.53
55934;BME280;41839;41.386;2.082;2022-10-31T00:11:24;100239.47;;;21.24;87.49
55934;BME280;41839;41.386;2.082;2022-10-31T00:13:50;100216.66;;;21.07;88.65
55934;BME280;41839;41.386;2.082;2022-10-31T00:16:17;100241.19;;;21.20;88.02
55934;BME280;41839;41.386;2.082;2022-10-31T00:20:48;100239.41;;;21.16;88.02
55934;BME280;41839;41.386;2.082;2022-10-31T00:23:13;100238.50;;;21.12;89.01
55934;BME280;41839;41.386;2.082;2022-10-31T00:25:39;100241.16;;;21.17;88.43
55934;BME280;41839;41.386;2.082;2022-10-31T00:28:06;100230.59;;;21.05;88.44
55934;BME280;41839;41.386;2.082;2022-10-31T00:30:32;100244.63;;;21.14;88.44
55934;BME280;41839;41.386;2.082;2022-10-31T00:32:58;100245.47;;;21.12;88.89
55934;BME280;41839;41.386;2.082;2022-10-31T00:35:23;100247.19;;;21.08;88.69
55934;BME280;41839;41.386;2.082;2022-10-31T00:38:20;100255.00;;;21.04;88.89
55934;BME280;41839;41.386;2.082;2022-10-31T00:40:45;100259.31;;;21.02;88.37
55934;BME280;41839;41.386;2.082;2022-10-31T00:43:11;100254.94;;;20.99;88.72
55934;BME280;41839;41.386;2.082;2022-10-31T00:45:36;100262.75;;;20.94;88.61
55934;BME280;41839;41.386;2.082;2022-10-31T00:48:02;100260.09;;;20.88;88.25
55934;BME280;41839;41.386;2.082;2022-10-31T00:52:39;100258.28;;;20.81;88.92
55934;BME280;41839;41.386;2.082;2022-10-31T00:55:05;100248.75;;;20.88;88.03
55934;BME280;41839;41.386;2.082;2022-10-31T00:57:30;100252.22;;;20.90;89.06
55934;BME280;41839;41.386;2.082;2022-10-31T00:59:56;100258.41;;;20.93;89.03
55934;BME280;41839;41.386;2.082;2022-10-31T01:02:21;100247.06;;;20.94;89.16
55934;BME280;41839;41.386;2.082;2022-10-31T01:04:47;100239.22;;;20.96;88.89
55934;BME280;41839;41.386;2.082;2022-10-31T01:07:12;100233.97;;;20.91;88.59
55934;BME280;41839;41.386;2.082;2022-10-31T01:09:39;100252.31;;;20.99;89.30
55934;BME280;41839;41.386;2.082;2022-10-31T01:12:04;100243.59;;;20.99;88.77
55934;BME280;41839;41.386;2.082;2022-10-31T01:14:30;100234.88;;;20.95;88.61
55934;BME280;41839;41.386;2.082;2022-10-31T01:16:55;100238.38;;;20.99;88.67
55934;BME280;41839;41.386;2.082;2022-10-31T01:19:21;100234.00;;;20.99;88.35
55934;BME280;41839;41.386;2.082;2022-10-31T01:21:46;100230.63;;;21.06;88.23
55934;BME280;41839;41.386;2.082;2022-10-31T01:24:12;100233.22;;;21.06;88.08
55934;BME280;41839;41.386;2.082;2022-10-31T01:26:49;100209.53;;;20.88;89.14
55934;BME280;41839;41.386;2.082;2022-10-31T01:29:16;100232.25;;;20.96;88.85
55934;BME280;41839;41.386;2.082;2022-10-31T01:33:53;100227.00;;;20.90;87.84
55934;BME280;41839;41.386;2.082;2022-10-31T01:36:37;100226.09;;;20.88;88.65
55934;BME280;41839;41.386;2.082;2022-10-31T01:39:53;100217.34;;;20.86;88.66
55934;BME280;41839;41.386;2.082;2022-10-31T01:42:20;100222.63;;;20.92;87.54
55934;BME280;41839;41.386;2.082;2022-10-31T01:45:24;100221.78;;;20.93;87.91
55934;BME280;41839;41.386;2.082;2022-10-31T01:47:50;100223.44;;;20.87;87.15
55934;BME280;41839;41.386;2.082;2022-10-31T01:50:26;100209.38;;;20.74;87.55
55934;BME280;41839;41.386;2.082;2022-10-31T01:52:53;100221.66;;;20.81;88.03
55934;BME280;41839;41.386;2.082;2022-10-31T01:55:35;100213.81;;;20.81;87.52
55934;BME280;41839;41.386;2.082;2022-10-31T02:01:01;100219.97;;;20.89;86.63
55934;BME280;41839;41.386;2.082;2022-10-31T02:03:28;100198.94;;;20.77;86.69
55934;BME280;41839;41.386;2.082;2022-10-31T02:05:55;100217.38;;;20.89;87.23
55934;BME280;41839;41.386;2.082;2022-10-31T02:09:04;100195.44;;;20.73;86.85
55934;BME280;41839;41.386;2.082;2022-10-31T02:11:30;100209.47;;;20.83;86.87
55934;BME280;41839;41.386;2.082;2022-10-31T02:14:10;100206.84;;;20.82;86.87
55934;BME280;41839;41.386;2.082;2022-10-31T02:16:36;100182.31;;;20.66;86.80
55934;BME280;41839;41.386;2.082;2022-10-31T02:19:02;100188.44;;;20.69;86.48
55934;BME280;41839;41.386;2.082;2022-10-31T02:21:36;100201.56;;;20.76;86.56
55934;BME280;41839;41.386;2.082;2022-10-31T02:24:56;100207.63;;;20.75;87.10
55934;BME280;41839;41.386;2.082;2022-10-31T02:47:03;100188.59;;;20.89;89.25
55934;BME280;41839;41.386;2.082;2022-10-31T02:54:01;100185.09;;;20.84;88.92
55934;BME280;41839;41.386;2.082;2022-10-31T02:56:27;100179.03;;;20.88;88.34
55934;BME280;41839;41.386;2.082;2022-10-31T02:58:59;100190.34;;;20.87;87.68
55934;BME280;41839;41.386;2.082;2022-10-31T03:06:33;100168.44;;;20.78;87.60
55934;BME280;41839;41.386;2.082;2022-10-31T03:12:04;100184.22;;;20.87;88.15
55934;BME280;41839;41.386;2.082;2022-10-31T03:16:52;100178.97;;;20.84;87.36
55934;BME280;41839;41.386;2.082;2022-10-31T03:19:26;100185.91;;;20.79;87.99
55934;BME280;41839;41.386;2.082;2022-10-31T03:22:06;100177.97;;;20.71;88.15
55934;BME280;41839;41.386;2.082;2022-10-31T03:24:37;100184.97;;;20.73;87.51
55934;BME280;41839;41.386;2.082;2022-10-31T03:27:06;100179.75;;;20.73;87.28
55934;BME280;41839;41.386;2.082;2022-10-31T03:29:34;100181.53;;;20.76;87.79
55934;BME280;41839;41.386;2.082;2022-10-31T03:32:15;100185.91;;;20.79;87.32
55934;BME280;41839;41.386;2.082;2022-10-31T03:34:44;100182.41;;;20.78;86.63
55934;BME280;41839;41.386;2.082;2022-10-31T03:38:05;100184.97;;;20.73;86.28
55934;BME280;41839;41.386;2.082;2022-10-31T03:40:31;100181.50;;;20.73;85.85
55934;BME280;41839;41.386;2.082;2022-10-31T03:43:01;100172.69;;;20.65;86.16
55934;BME280;41839;41.386;2.082;2022-10-31T03:45:30;100186.66;;;20.67;86.10
55934;BME280;41839;41.386;2.082;2022-10-31T03:47:59;100188.44;;;20.71;85.84
55934;BME280;41839;41.386;2.082;2022-10-31T04:00:21;100166.56;;;20.60;85.77
55934;BME280;41839;41.386;2.082;2022-10-31T04:02:53;100179.63;;;20.61;85.98
55934;BME280;41839;41.386;2.082;2022-10-31T04:05:21;100187.44;;;20.58;85.62
55934;BME280;41839;41.386;2.082;2022-10-31T04:07:50;100184.03;;;20.64;85.53
55934;BME280;41839;41.386;2.082;2022-10-31T04:10:18;100179.63;;;20.61;85.23
55934;BME280;41839;41.386;2.082;2022-10-31T04:12:48;100186.56;;;20.58;85.20
55934;BME280;41839;41.386;2.082;2022-10-31T04:15:15;100185.63;;;20.53;85.79
55934;BME280;41839;41.386;2.082;2022-10-31T04:17:42;100178.72;;;20.58;85.91
55934;BME280;41839;41.386;2.082;2022-10-31T04:20:09;100171.63;;;20.49;85.44
55934;BME280;41839;41.386;2.082;2022-10-31T04:27:17;100171.75;;;20.57;85.33
55934;BME280;41839;41.386;2.082;2022-10-31T04:29:42;100180.44;;;20.56;85.64
55934;BME280;41839;41.386;2.082;2022-10-31T04:32:08;100170.84;;;20.56;84.45
55934;BME280;41839;41.386;2.082;2022-10-31T04:34:33;100164.63;;;20.46;84.61
55934;BME280;41839;41.386;2.082;2022-10-31T04:37:30;100171.75;;;20.57;84.17
55934;BME280;41839;41.386;2.082;2022-10-31T04:39:56;100171.75;;;20.58;83.82
55934;BME280;41839;41.386;2.082;2022-10-31T04:42:21;100167.41;;;20.57;83.74
55934;BME280;41839;41.386;2.082;2022-10-31T04:44:47;100168.25;;;20.56;83.61
55934;BME280;41839;41.386;2.082;2022-10-31T04:48:52;100170.72;;;20.47;83.88
55934;BME280;41839;41.386;2.082;2022-10-31T04:51:49;100174.09;;;20.32;81.93
55934;BME280;41839;41.386;2.082;2022-10-31T04:56:59;100141.41;;;19.93;82.94
55934;BME280;41839;41.386;2.082;2022-10-31T05:00:19;100171.28;;;20.14;85.02
55934;BME280;41839;41.386;2.082;2022-10-31T05:02:50;100172.25;;;20.23;84.73
55934;BME280;41839;41.386;2.082;2022-10-31T05:05:18;100172.34;;;20.34;85.92
55934;BME280;41839;41.386;2.082;2022-10-31T05:07:45;100167.16;;;20.36;83.77
55934;BME280;41839;41.386;2.082;2022-10-31T05:10:13;100173.25;;;20.36;84.26
55934;BME280;41839;41.386;2.082;2022-10-31T05:13:21;100163.63;;;20.32;84.54
55934;BME280;41839;41.386;2.082;2022-10-31T05:15:47;100172.41;;;20.40;84.60
55934;BME280;41839;41.386;2.082;2022-10-31T05:19:21;100176.75;;;20.38;84.05
55934;BME280;41839;41.386;2.082;2022-10-31T05:21:47;100157.59;;;20.39;85.51
55934;BME280;41839;41.386;2.082;2022-10-31T05:24:12;100175.97;;;20.45;84.40
55934;BME280;41839;41.386;2.082;2022-10-31T05:26:37;100154.09;;;20.36;83.30
55934;BME280;41839;41.386;2.082;2022-10-31T05:29:03;100170.72;;;20.45;84.10
55934;BME280;41839;41.386;2.082;2022-10-31T05:31:28;100171.59;;;20.44;83.64
55934;BME280;41839;41.386;2.082;2022-10-31T05:33:54;100167.25;;;20.46;83.10
55934;BME280;41839;41.386;2.082;2022-10-31T05:36:19;100155.88;;;20.38;84.36
55934;BME280;41839;41.386;2.082;2022-10-31T05:38:44;100172.44;;;20.42;83.21
55934;BME280;41839;41.386;2.082;2022-10-31T05:41:10;100168.91;;;20.37;82.95
55934;BME280;41839;41.386;2.082;2022-10-31T05:43:35;100171.53;;;20.38;82.97
55934;BME280;41839;41.386;2.082;2022-10-31T05:47:37;100168.97;;;20.41;83.05
55934;BME280;41839;41.386;2.082;2022-10-31T05:50:03;100172.34;;;20.33;82.90
55934;BME280;41839;41.386;2.082;2022-10-31T05:52:29;100184.59;;;20.38;82.53
55934;BME280;41839;41.386;2.082;2022-10-31T05:55:11;100134.56;;;20.03;82.20
55934;BME280;41839;41.386;2.082;2022-10-31T05:57:37;100165.09;;;20.07;83.05
55934;BME280;41839;41.386;2.082;2022-10-31T06:00:03;100180.84;;;20.13;82.62
55934;BME280;41839;41.386;2.082;2022-10-31T06:02:29;100174.53;;;19.96;82.06
55934;BME280;41839;41.386;2.082;2022-10-31T06:06:36;100178.97;;;20.01;84.92
55934;BME280;41839;41.386;2.082;2022-10-31T06:09:01;100161.47;;;19.97;85.24
55934;BME280;41839;41.386;2.082;2022-10-31T06:11:27;100180.81;;;20.10;84.51
55934;BME280;41839;41.386;2.082;2022-10-31T06:14:04;100187.78;;;20.13;83.49
55934;BME280;41839;41.386;2.082;2022-10-31T06:16:55;100186.06;;;20.13;83.06
55934;BME280;41839;41.386;2.082;2022-10-31T06:22:06;100191.25;;;20.10;84.42
55934;BME280;41839;41.386;2.082;2022-10-31T06:24:32;100186.97;;;20.17;85.08
55934;BME280;41839;41.386;2.082;2022-10-31T06:26:57;100199.16;;;20.18;84.83
55934;BME280;41839;41.386;2.082;2022-10-31T06:29:23;100199.22;;;20.22;84.06
55934;BME280;41839;41.386;2.082;2022-10-31T06:31:51;100179.94;;;20.13;84.77
55934;BME280;41839;41.386;2.082;2022-10-31T06:34:53;100181.78;;;20.20;85.27
55934;BME280;41839;41.386;2.082;2022-10-31T06:38:40;100171.19;;;20.09;84.81
55934;BME280;41839;41.386;2.082;2022-10-31T06:43:02;100204.56;;;20.32;84.12
55934;BME280;41839;41.386;2.082;2022-10-31T06:45:28;100199.31;;;20.29;84.55
55934;BME280;41839;41.386;2.082;2022-10-31T06:48:02;100208.09;;;20.35;84.12
55934;BME280;41839;41.386;2.082;2022-10-31T06:50:28;100187.09;;;20.26;84.51
55934;BME280;41839;41.386;2.082;2022-10-31T06:52:56;100210.72;;;20.38;83.13
55934;BME280;41839;41.386;2.082;2022-10-31T06:55:22;100209.00;;;20.40;82.90
55934;BME280;41839;41.386;2.082;2022-10-31T06:58:31;100206.38;;;20.39;83.33
55934;BME280;41839;41.386;2.082;2022-10-31T07:00:59;100204.66;;;20.42;82.10
55934;BME280;41839;41.386;2.082;2022-10-31T07:03:25;100179.09;;;20.15;82.85
55934;BME280;41839;41.386;2.082;2022-10-31T07:08:23;100220.31;;;20.38;84.70
55934;BME280;41839;41.386;2.082;2022-10-31T07:10:53;100228.22;;;20.47;83.71
55934;BME280;41839;41.386;2.082;2022-10-31T07:13:19;100225.66;;;20.50;82.79
55934;BME280;41839;41.386;2.082;2022-10-31T07:15:53;100234.34;;;20.49;81.16
55934;BME280;41839;41.386;2.082;2022-10-31T07:18:20;100223.81;;;20.38;81.34
55934;BME280;41839;41.386;2.082;2022-10-31T07:20:45;100243.03;;;20.46;81.43
55934;BME280;41839;41.386;2.082;2022-10-31T07:24:34;100250.75;;;20.36;82.47
55934;BME280;41839;41.386;2.082;2022-10-31T07:26:59;100253.34;;;20.33;80.92
55934;BME280;41839;41.386;2.082;2022-10-31T07:29:24;100239.47;;;20.40;81.26
55934;BME280;41839;41.386;2.082;2022-10-31T07:31:50;100228.09;;;20.32;81.46
55934;BME280;41839;41.386;2.082;2022-10-31T07:34:15;100243.84;;;20.39;81.52
55934;BME280;41839;41.386;2.082;2022-10-31T07:36:41;100243.06;;;20.48;83.01
55934;BME280;41839;41.386;2.082;2022-10-31T07:39:06;100207.28;;;20.41;83.78
55934;BME280;41839;41.386;2.082;2022-10-31T07:41:32;100248.59;;;20.72;82.58
55934;BME280;41839;41.386;2.082;2022-10-31T07:43:57;100232.00;;;20.69;81.67
55934;BME280;41839;41.386;2.082;2022-10-31T07:46:23;100231.09;;;20.68;82.61
55934;BME280;41839;41.386;2.082;2022-10-31T07:53:06;100246.22;;;20.97;81.53
55934;BME280;41839;41.386;2.082;2022-10-31T07:55:33;100250.66;;;21.09;80.49
55934;BME280;41839;41.386;2.082;2022-10-31T07:59:50;100248.19;;;21.24;80.01
55934;BME280;41839;41.386;2.082;2022-10-31T08:02:15;100250.03;;;21.34;79.38
55934;BME280;41839;41.386;2.082;2022-10-31T08:04:41;100242.28;;;21.44;78.46
55934;BME280;41839;41.386;2.082;2022-10-31T08:10:33;100228.31;;;21.46;77.26
55934;BME280;41839;41.386;2.082;2022-10-31T08:13:00;100238.03;;;21.59;77.39
55934;BME280;41839;41.386;2.082;2022-10-31T08:15:26;100245.91;;;21.62;77.02
55934;BME280;41839;41.386;2.082;2022-10-31T08:17:52;100242.38;;;21.57;77.16
55934;BME280;41839;41.386;2.082;2022-10-31T08:20:18;100239.81;;;21.65;76.95
55934;BME280;41839;41.386;2.082;2022-10-31T08:22:55;100261.69;;;21.79;76.47
55934;BME280;41839;41.386;2.082;2022-10-31T08:25:21;100248.56;;;21.73;77.61
55934;BME280;41839;41.386;2.082;2022-10-31T08:27:51;100255.53;;;21.68;78.52
55934;BME280;41839;41.386;2.082;2022-10-31T08:30:18;100250.28;;;21.65;77.73
55934;BME280;41839;41.386;2.082;2022-10-31T08:32:43;100252.91;;;21.67;75.00
55934;BME280;41839;41.386;2.082;2022-10-31T08:35:09;100256.38;;;21.64;75.96
55934;BME280;41839;41.386;2.082;2022-10-31T08:37:34;100254.66;;;21.66;74.44
55934;BME280;41839;41.386;2.082;2022-10-31T08:40:00;100237.16;;;21.63;73.92
55934;BME280;41839;41.386;2.082;2022-10-31T08:42:25;100247.72;;;21.76;73.48
55934;BME280;41839;41.386;2.082;2022-10-31T08:44:51;100245.19;;;21.90;78.98
55934;BME280;41839;41.386;2.082;2022-10-31T08:47:16;100241.88;;;22.21;77.03
55934;BME280;41839;41.386;2.082;2022-10-31T08:49:42;100232.25;;;22.19;72.35
55934;BME280;41839;41.386;2.082;2022-10-31T08:52:07;100234.88;;;22.19;81.32
55934;BME280;41839;41.386;2.082;2022-10-31T08:54:32;100241.03;;;22.28;73.41
55934;BME280;41839;41.386;2.082;2022-10-31T08:56:58;100234.03;;;22.24;73.77
55934;BME280;41839;41.386;2.082;2022-10-31T08:59:23;100238.47;;;22.51;73.53
55934;BME280;41839;41.386;2.082;2022-10-31T09:01:49;100225.41;;;22.62;75.86
55934;BME280;41839;41.386;2.082;2022-10-31T09:04:14;100258.63;;;22.68;77.87
55934;BME280;41839;41.386;2.082;2022-10-31T09:06:40;100267.44;;;22.97;75.17
55934;BME280;41839;41.386;2.082;2022-10-31T09:09:05;100263.09;;;22.98;74.21
55934;BME280;41839;41.386;2.082;2022-10-31T09:11:31;100261.34;;;23.01;73.91
55934;BME280;41839;41.386;2.082;2022-10-31T09:13:56;100240.38;;;23.20;74.04
55934;BME280;41839;41.386;2.082;2022-10-31T09:16:22;100262.22;;;23.53;71.29
55934;BME280;41839;41.386;2.082;2022-10-31T09:20:39;100260.47;;;23.78;67.99
55934;BME280;41839;41.386;2.082;2022-10-31T09:23:13;100262.25;;;23.73;66.55
55934;BME280;41839;41.386;2.082;2022-10-31T09:25:40;100262.16;;;23.99;64.66
55934;BME280;41839;41.386;2.082;2022-10-31T09:28:07;100258.63;;;24.06;66.91
55934;BME280;41839;41.386;2.082;2022-10-31T09:30:35;100245.47;;;24.16;66.17
55934;BME280;41839;41.386;2.082;2022-10-31T09:34:27;100259.38;;;24.43;65.80
55934;BME280;41839;41.386;2.082;2022-10-31T09:36:52;100249.72;;;24.53;61.57
55934;BME280;41839;41.386;2.082;2022-10-31T09:39:18;100256.59;;;24.74;64.11
55934;BME280;41839;41.386;2.082;2022-10-31T09:44:37;100234.06;;;24.21;61.38
55934;BME280;41839;41.386;2.082;2022-10-31T09:52:29;100235.00;;;23.97;63.22
55934;BME280;41839;41.386;2.082;2022-10-31T09:55:14;100236.78;;;23.98;63.38
55934;BME280;41839;41.386;2.082;2022-10-31T09:59:36;100233.28;;;23.92;66.73
55934;BME280;41839;41.386;2.082;2022-10-31T10:02:16;100232.28;;;24.21;63.38
55934;BME280;41839;41.386;2.082;2022-10-31T10:05:00;100236.66;;;24.24;63.62
55934;BME280;41839;41.386;2.082;2022-10-31T10:07:35;100233.94;;;24.53;65.46
55934;BME280;41839;41.386;2.082;2022-10-31T10:30:13;100189.44;;;26.16;59.13
55934;BME280;41839;41.386;2.082;2022-10-31T10:32:47;100221.44;;;26.57;58.25
55934;BME280;41839;41.386;2.082;2022-10-31T10:36:50;100216.22;;;27.09;55.31
55934;BME280;41839;41.386;2.082;2022-10-31T10:43:33;100209.00;;;27.22;55.77
55934;BME280;41839;41.386;2.082;2022-10-31T10:49:56;100208.63;;;27.45;54.00
55934;BME280;41839;41.386;2.082;2022-10-31T10:51:59;100211.78;;;27.16;55.02
55934;BME280;41839;41.386;2.082;2022-10-31T10:59:16;100204.59;;;26.67;55.80
55934;BME280;41839;41.386;2.082;2022-10-31T11:01:43;100205.56;;;26.61;51.17
55934;BME280;41839;41.386;2.082;2022-10-31T11:04:35;100213.66;;;26.49;55.14
55934;BME280;41839;41.386;2.082;2022-10-31T11:08:31;100208.84;;;26.12;57.82
55934;BME280;41839;41.386;2.082;2022-10-31T11:13:45;100196.91;;;25.79;56.39
55934;BME280;41839;41.386;2.082;2022-10-31T11:17:25;100196.03;;;25.79;56.11
55934;BME280;41839;41.386;2.082;2022-10-31T11:22:38;100189.53;;;25.27;57.89
55934;BME280;41839;41.386;2.082;2022-10-31T11:27:44;100166.69;;;25.29;59.85
55934;BME280;41839;41.386;2.082;2022-10-31T11:30:11;100194.72;;;25.38;58.14
55934;BME280;41839;41.386;2.082;2022-10-31T11:32:43;100197.41;;;25.30;60.13
55934;BME280;41839;41.386;2.082;2022-10-31T11:35:12;100191.31;;;25.25;60.87
55934;BME280;41839;41.386;2.082;2022-10-31T11:37:42;100180.75;;;25.31;60.08
55934;BME280;41839;41.386;2.082;2022-10-31T11:40:22;100184.22;;;25.35;60.13
55934;BME280;41839;41.386;2.082;2022-10-31T11:42:51;100179.09;;;25.15;61.09
55934;BME280;41839;41.386;2.082;2022-10-31T11:47:50;100162.59;;;24.94;61.21
55934;BME280;41839;41.386;2.082;2022-10-31T11:50:25;100162.63;;;24.91;58.71
55934;BME280;41839;41.386;2.082;2022-10-31T11:52:53;100167.00;;;24.94;60.08
55934;BME280;41839;41.386;2.082;2022-10-31T11:55:34;100155.72;;;24.81;61.73
55934;BME280;41839;41.386;2.082;2022-10-31T11:58:00;100134.78;;;24.61;61.21
55934;BME280;41839;41.386;2.082;2022-10-31T12:06:03;100132.19;;;24.58;63.24
55934;BME280;41839;41.386;2.082;2022-10-31T12:08:32;100145.31;;;24.61;63.50
55934;BME280;41839;41.386;2.082;2022-10-31T12:13:50;100142.66;;;24.67;63.40
55934;BME280;41839;41.386;2.082;2022-10-31T12:19:06;100125.13;;;24.66;62.35
55934;BME280;41839;41.386;2.082;2022-10-31T12:27:42;100120.69;;;24.71;64.49
55934;BME280;41839;41.386;2.082;2022-10-31T12:30:19;100116.34;;;24.69;64.43
55934;BME280;41839;41.386;2.082;2022-10-31T12:35:46;100111.97;;;24.66;64.17
55934;BME280;41839;41.386;2.082;2022-10-31T12:43:36;100113.81;;;24.56;64.72
55934;BME280;41839;41.386;2.082;2022-10-31T12:46:24;100106.75;;;24.60;64.83
55934;BME280;41839;41.386;2.082;2022-10-31T12:55:05;100092.69;;;24.64;65.74
55934;BME280;41839;41.386;2.082;2022-10-31T12:57:38;100089.25;;;24.59;65.59
55934;BME280;41839;41.386;2.082;2022-10-31T13:02:54;100077.81;;;24.60;65.95
55934;BME280;41839;41.386;2.082;2022-10-31T13:05:30;100087.44;;;24.61;65.99
55934;BME280;41839;41.386;2.082;2022-10-31T13:13:30;100079.38;;;24.82;65.86
55934;BME280;41839;41.386;2.082;2022-10-31T13:16:17;100065.31;;;24.85;65.77
55934;BME280;41839;41.386;2.082;2022-10-31T13:22:53;100072.31;;;24.86;65.32
55934;BME280;41839;41.386;2.082;2022-10-31T13:25:27;100071.38;;;24.92;65.88
55934;BME280;41839;41.386;2.082;2022-10-31T13:28:09;100070.53;;;24.91;65.75
55934;BME280;41839;41.386;2.082;2022-10-31T13:30:54;100069.53;;;25.03;64.68
55934;BME280;41839;41.386;2.082;2022-10-31T13:33:34;100066.94;;;25.00;65.39
55934;BME280;41839;41.386;2.082;2022-10-31T13:45:20;100033.09;;;24.61;64.31
55934;BME280;41839;41.386;2.082;2022-10-31T13:48:18;100075.84;;;24.83;66.16
55934;BME280;41839;41.386;2.082;2022-10-31T13:50:59;100074.97;;;24.84;66.35
55934;BME280;41839;41.386;2.082;2022-10-31T13:53:42;100072.34;;;24.83;65.78
55934;BME280;41839;41.386;2.082;2022-10-31T14:00:24;100051.66;;;24.43;66.77
55934;BME280;41839;41.386;2.082;2022-10-31T14:02:56;100059.50;;;24.46;67.65
55934;BME280;41839;41.386;2.082;2022-10-31T14:05:23;100056.03;;;24.43;68.04
55934;BME280;41839;41.386;2.082;2022-10-31T14:07:51;100070.13;;;24.31;67.20
55934;BME280;41839;41.386;2.082;2022-10-31T14:10:36;100061.38;;;24.27;67.79
55934;BME280;41839;41.386;2.082;2022-10-31T14:13:13;100065.81;;;24.21;69.05
55934;BME280;41839;41.386;2.082;2022-10-31T14:15:43;100051.84;;;24.12;67.90
55934;BME280;41839;41.386;2.082;2022-10-31T14:18:38;100059.75;;;24.09;69.65
55934;BME280;41839;41.386;2.082;2022-10-31T14:29:51;100065.94;;;23.99;69.19
55934;BME280;41839;41.386;2.082;2022-10-31T14:32:23;100063.31;;;24.02;70.10
55934;BME280;41839;41.386;2.082;2022-10-31T14:34:55;100062.38;;;24.11;69.43
55934;BME280;41839;41.386;2.082;2022-10-31T14:46:00;100067.69;;;24.03;69.87
55934;BME280;41839;41.386;2.082;2022-10-31T14:53:47;100056.41;;;23.86;70.80
55934;BME280;41839;41.386;2.082;2022-10-31T14:56:24;100070.41;;;23.83;71.10
55934;BME280;41839;41.386;2.082;2022-10-31T15:01:33;100066.94;;;23.75;71.47
55934;BME280;41839;41.386;2.082;2022-10-31T15:04:18;100066.97;;;23.74;71.29
55934;BME280;41839;41.386;2.082;2022-10-31T15:07:05;100057.34;;;23.66;70.98
55934;BME280;41839;41.386;2.082;2022-10-31T15:09:35;99999.78;;;23.27;72.17
55934;BME280;41839;41.386;2.082;2022-10-31T15:12:28;100066.97;;;23.63;72.01
55934;BME280;41839;41.386;2.082;2022-10-31T15:14:54;100050.41;;;23.52;72.00
55934;BME280;41839;41.386;2.082;2022-10-31T15:17:22;100068.78;;;23.55;72.76
55934;BME280;41839;41.386;2.082;2022-10-31T15:19:49;100039.94;;;23.38;72.20
55934;BME280;41839;41.386;2.082;2022-10-31T15:22:17;100070.53;;;23.50;73.39
55934;BME280;41839;41.386;2.082;2022-10-31T15:24:44;100066.16;;;23.47;73.87
55934;BME280;41839;41.386;2.082;2022-10-31T15:27:13;100070.56;;;23.40;73.97
55934;BME280;41839;41.386;2.082;2022-10-31T15:29:51;100067.09;;;23.41;73.83
55934;BME280;41839;41.386;2.082;2022-10-31T15:32:24;100070.59;;;23.36;74.86
55934;BME280;41839;41.386;2.082;2022-10-31T15:34:50;100065.34;;;23.31;75.48
55934;BME280;41839;41.386;2.082;2022-10-31T15:37:18;100067.13;;;23.29;75.53
55934;BME280;41839;41.386;2.082;2022-10-31T15:40:59;100071.50;;;23.22;76.08
55934;BME280;41839;41.386;2.082;2022-10-31T15:43:32;100073.25;;;23.25;76.12
55934;BME280;41839;41.386;2.082;2022-10-31T15:46:00;100061.03;;;23.15;76.27
55934;BME280;41839;41.386;2.082;2022-10-31T15:48:27;100061.91;;;23.17;76.52
55934;BME280;41839;41.386;2.082;2022-10-31T15:50:56;100038.31;;;23.06;76.27
55934;BME280;41839;41.386;2.082;2022-10-31T15:53:42;100069.75;;;23.24;75.91
55934;BME280;41839;41.386;2.082;2022-10-31T15:56:12;100062.75;;;23.22;76.47
55934;BME280;41839;41.386;2.082;2022-10-31T16:00:02;100072.41;;;23.20;76.73
55934;BME280;41839;41.386;2.082;2022-10-31T16:02:27;100072.41;;;23.18;76.90
55934;BME280;41839;41.386;2.082;2022-10-31T16:04:58;100074.13;;;23.16;75.79
55934;BME280;41839;41.386;2.082;2022-10-31T16:07:25;100079.38;;;23.16;76.36
55934;BME280;41839;41.386;2.082;2022-10-31T16:09:54;100074.16;;;23.15;77.39
55934;BME280;41839;41.386;2.082;2022-10-31T16:12:22;100073.28;;;23.10;77.69
55934;BME280;41839;41.386;2.082;2022-10-31T16:14:50;100078.53;;;23.10;78.15
55934;BME280;41839;41.386;2.082;2022-10-31T16:17:19;100066.31;;;23.02;78.25
55934;BME280;41839;41.386;2.082;2022-10-31T16:19:51;100082.00;;;23.16;78.18
55934;BME280;41839;41.386;2.082;2022-10-31T16:22:24;100084.66;;;23.15;77.74
55934;BME280;41839;41.386;2.082;2022-10-31T16:25:12;100076.78;;;23.15;77.81
55934;BME280;41839;41.386;2.082;2022-10-31T16:27:39;100075.91;;;23.14;77.78
55934;BME280;41839;41.386;2.082;2022-10-31T16:31:35;100061.03;;;23.10;77.97
55934;BME280;41839;41.386;2.082;2022-10-31T16:34:12;100068.94;;;23.06;77.59
55934;BME280;41839;41.386;2.082;2022-10-31T16:36:39;100037.44;;;22.93;78.01
55934;BME280;41839;41.386;2.082;2022-10-31T16:39:05;100055.81;;;23.04;77.87
55934;BME280;41839;41.386;2.082;2022-10-31T16:41:34;100076.81;;;23.01;78.41
55934;BME280;41839;41.386;2.082;2022-10-31T16:44:02;100068.94;;;22.99;78.79
55934;BME280;41839;41.386;2.082;2022-10-31T16:46:29;100054.94;;;22.90;78.31
55934;BME280;41839;41.386;2.082;2022-10-31T16:48:54;100063.69;;;22.90;78.74
55934;BME280;41839;41.386;2.082;2022-10-31T16:51:20;100066.34;;;22.73;79.61
55934;BME280;41839;41.386;2.082;2022-10-31T16:53:45;100082.06;;;22.72;79.80
55934;BME280;41839;41.386;2.082;2022-10-31T16:56:17;100090.78;;;22.82;80.57
55934;BME280;41839;41.386;2.082;2022-10-31T16:58:43;100079.44;;;22.75;79.94
55934;BME280;41839;41.386;2.082;2022-10-31T17:01:10;100098.66;;;22.89;79.75
55934;BME280;41839;41.386;2.082;2022-10-31T17:03:37;100115.28;;;22.90;79.75